createdAt,value
2024-01-15T00:00:42.947Z,4.00
2024-01-15T00:03:31.628Z,3.00
2024-01-15T00:06:00.035Z,3.40
2024-01-15T00:08:28.840Z,2.80
2024-01-15T00:10:58.761Z,3.40
2024-01-15T00:13:27.012Z,3.90
2024-01-15T00:15:55.327Z,2.80
2024-01-15T00:18:24.221Z,2.80
2024-01-15T00:20:52.763Z,2.70
2024-01-15T00:23:21.122Z,3.10
2024-01-15T00:25:49.701Z,3.50
2024-01-15T00:28:18.062Z,3.20
2024-01-15T00:30:49.021Z,3.70
2024-01-15T00:33:17.516Z,2.90
2024-01-15T00:35:46.225Z,3.80
2024-01-15T00:38:14.304Z,3.60
2024-01-15T00:40:42.714Z,3.50
2024-01-15T00:43:11.537Z,2.90
2024-01-15T00:45:41.633Z,3.00
2024-01-15T00:48:10.529Z,3.30
2024-01-15T00:50:39.102Z,3.30
2024-01-15T00:53:07.352Z,2.90
2024-01-15T00:55:35.600Z,3.30
2024-01-15T00:58:03.862Z,4.30
2024-01-15T01:03:40.007Z,3.70
2024-01-15T01:06:08.597Z,2.70
2024-01-15T01:08:38.589Z,3.40
2024-01-15T01:11:07.191Z,4.00
2024-01-15T01:13:35.297Z,3.50
2024-01-15T01:16:03.742Z,3.30
2024-01-15T01:18:32.304Z,3.20
2024-01-15T01:21:00.697Z,3.40
2024-01-15T01:23:28.865Z,3.50
2024-01-15T01:25:57.667Z,2.90
2024-01-15T01:28:26.281Z,3.50
2024-01-15T01:30:54.660Z,2.60
2024-01-15T01:33:23.755Z,3.70
2024-01-15T01:35:52.364Z,2.90
2024-01-15T01:38:20.660Z,3.00
2024-01-15T01:40:48.998Z,3.60
2024-01-15T01:43:17.383Z,2.80
2024-01-15T01:45:46.383Z,3.80
2024-01-15T01:48:15.011Z,3.90
2024-01-15T01:50:43.558Z,3.10
2024-01-15T01:53:12.356Z,3.10
2024-01-15T01:55:41.185Z,3.10
2024-01-15T01:58:09.540Z,3.10
2024-01-15T02:00:38.070Z,3.50
2024-01-15T02:03:08.029Z,3.30
2024-01-15T02:05:40.071Z,3.10
2024-01-15T02:08:08.559Z,3.20
2024-01-15T02:10:36.820Z,3.20
2024-01-15T02:13:05.178Z,3.60
2024-01-15T02:15:33.566Z,2.90
2024-01-15T02:18:08.174Z,3.20
2024-01-15T02:20:37.526Z,3.60
2024-01-15T02:23:25.744Z,3.00
2024-01-15T02:28:22.214Z,2.90
2024-01-15T02:30:50.571Z,2.70
2024-01-15T02:33:19.746Z,3.40
2024-01-15T02:35:48.085Z,2.70
2024-01-15T02:38:16.270Z,3.00
2024-01-15T02:40:46.423Z,2.60
2024-01-15T02:43:14.606Z,3.00
2024-01-15T02:45:43.054Z,3.10
2024-01-15T02:48:12.142Z,3.20
2024-01-15T02:50:40.684Z,3.30
2024-01-15T02:53:08.947Z,3.00
2024-01-15T02:55:37.552Z,3.20
2024-01-15T02:58:05.921Z,3.00
2024-01-15T03:00:34.912Z,3.00
2024-01-15T03:03:04.327Z,3.00
2024-01-15T03:05:34.385Z,3.80
2024-01-15T03:08:02.906Z,2.80
2024-01-15T03:10:31.521Z,3.00
2024-01-15T03:12:59.757Z,3.20
2024-01-15T03:15:29.578Z,3.30
2024-01-15T03:17:57.949Z,3.20
2024-01-15T03:20:26.748Z,3.50
2024-01-15T03:22:55.685Z,3.50
2024-01-15T03:25:24.096Z,2.90
2024-01-15T03:27:52.334Z,3.00
2024-01-15T03:30:21.106Z,3.20
2024-01-15T03:32:50.681Z,3.20
2024-01-15T03:35:19.483Z,3.30
2024-01-15T03:37:47.629Z,3.60
2024-01-15T03:40:19.398Z,3.60
2024-01-15T03:42:49.669Z,2.80
2024-01-15T03:45:18.302Z,3.10
2024-01-15T03:47:47.067Z,3.50
2024-01-15T03:50:16.617Z,3.20
2024-01-15T03:52:44.926Z,3.30
2024-01-15T03:55:13.417Z,3.90
2024-01-15T03:57:41.559Z,3.90
2024-01-15T04:00:10.672Z,3.00
2024-01-15T04:02:40.271Z,3.80
2024-01-15T04:05:09.545Z,3.20
2024-01-15T04:07:37.776Z,3.50
2024-01-15T04:10:07.225Z,3.20
2024-01-15T04:12:36.745Z,3.60
2024-01-15T04:15:05.757Z,3.80
2024-01-15T04:17:33.935Z,3.70
2024-01-15T04:20:02.579Z,3.00
2024-01-15T04:22:30.823Z,3.60
2024-01-15T04:24:59.200Z,3.40
2024-01-15T04:27:27.627Z,3.60
2024-01-15T04:29:55.975Z,3.00
2024-01-15T04:32:24.964Z,3.50
2024-01-15T04:34:53.847Z,3.20
2024-01-15T04:37:22.066Z,3.50
2024-01-15T04:39:50.372Z,3.40
2024-01-15T04:42:18.780Z,3.70
2024-01-15T04:44:47.506Z,3.40
2024-01-15T04:47:16.746Z,3.50
2024-01-15T04:49:45.088Z,3.20
2024-01-15T04:52:13.636Z,3.00
2024-01-15T04:54:41.917Z,3.10
2024-01-15T04:57:10.431Z,3.10
2024-01-15T04:59:38.869Z,3.20
2024-01-15T05:02:07.333Z,3.20
2024-01-15T05:04:36.096Z,3.20
2024-01-15T05:07:05.125Z,3.40
2024-01-15T05:09:33.605Z,3.60
2024-01-15T05:12:02.057Z,3.30
2024-01-15T05:14:31.030Z,3.20
2024-01-15T05:16:59.308Z,3.80
2024-01-15T05:19:28.461Z,3.50
2024-01-15T05:21:56.692Z,3.00
2024-01-15T05:24:24.865Z,2.60
2024-01-15T05:26:53.719Z,2.70
2024-01-15T05:29:21.967Z,4.20
2024-01-15T05:31:50.739Z,3.40
2024-01-15T05:34:19.759Z,3.20
2024-01-15T05:36:48.195Z,2.70
2024-01-15T05:39:16.684Z,3.00
2024-01-15T05:41:45.093Z,2.80
2024-01-15T05:44:13.752Z,2.50
2024-01-15T05:46:42.013Z,2.90
2024-01-15T05:49:11.581Z,3.10
2024-01-15T05:51:40.936Z,2.60
2024-01-15T05:54:09.285Z,3.00
2024-01-15T05:56:37.667Z,2.70
2024-01-15T05:59:05.973Z,3.00
2024-01-15T06:01:35.252Z,2.10
2024-01-15T06:04:04.151Z,2.40
2024-01-15T06:06:32.422Z,2.00
2024-01-15T06:09:00.771Z,1.90
2024-01-15T06:11:33.442Z,1.80
2024-01-15T06:14:01.717Z,1.70
2024-01-15T06:16:30.449Z,1.60
2024-01-15T06:18:59.130Z,1.90
2024-01-15T06:21:28.067Z,1.70
2024-01-15T06:23:56.406Z,1.10
2024-01-15T06:26:24.985Z,1.60
2024-01-15T06:28:53.311Z,1.50
2024-01-15T06:31:21.701Z,1.50
2024-01-15T06:33:50.585Z,1.40
2024-01-15T06:36:19.698Z,1.20
2024-01-15T06:38:47.953Z,1.20
2024-01-15T06:41:17.164Z,1.30
2024-01-15T06:43:45.435Z,1.30
2024-01-15T06:46:13.731Z,1.30
2024-01-15T06:48:43.734Z,1.50
2024-01-15T06:51:12.020Z,1.90
2024-01-15T06:53:40.758Z,1.70
2024-01-15T06:56:09.889Z,1.60
2024-01-15T06:58:38.502Z,1.70
2024-01-15T07:01:06.991Z,2.20
2024-01-15T07:03:36.025Z,2.20
2024-01-15T07:06:04.742Z,2.50
2024-01-15T07:08:33.039Z,2.30
2024-01-15T07:11:05.199Z,2.40
2024-01-15T07:13:34.397Z,2.40
2024-01-15T07:16:02.896Z,3.30
2024-01-15T07:18:31.300Z,2.30
2024-01-15T07:20:59.832Z,3.10
2024-01-15T07:23:31.286Z,2.70
2024-01-15T07:25:59.987Z,2.50
2024-01-15T07:28:30.815Z,2.70
2024-01-15T07:31:01.111Z,3.10
2024-01-15T07:33:29.620Z,2.60
2024-01-15T07:35:59.990Z,2.80
2024-01-15T07:38:29.562Z,3.00
2024-01-15T07:40:57.910Z,2.80
2024-01-15T07:43:29.205Z,2.60
2024-01-15T07:45:57.500Z,3.20
2024-01-15T07:48:26.083Z,3.00
2024-01-15T07:50:54.706Z,3.30
2024-01-15T07:53:23.076Z,3.30
2024-01-15T07:55:51.355Z,2.90
2024-01-15T07:58:19.748Z,2.90
2024-01-15T08:00:48.872Z,2.80
2024-01-15T08:03:17.163Z,2.30
2024-01-15T08:05:46.989Z,2.50
2024-01-15T08:08:16.614Z,2.00
2024-01-15T08:10:45.009Z,2.60
2024-01-15T08:13:14.088Z,2.50
2024-01-15T08:15:42.982Z,2.60
2024-01-15T08:18:11.617Z,2.60
2024-01-15T08:20:40.612Z,2.50
2024-01-15T08:23:09.092Z,2.60
2024-01-15T08:25:37.344Z,2.20
2024-01-15T08:28:06.206Z,2.40
2024-01-15T08:30:34.981Z,2.60
2024-01-15T08:33:08.505Z,2.90
2024-01-15T08:35:40.187Z,3.30
2024-01-15T08:38:08.479Z,3.40
2024-01-15T08:40:36.652Z,3.00
2024-01-15T08:43:06.087Z,3.50
2024-01-15T08:45:35.307Z,3.10
2024-01-15T08:48:03.920Z,3.10
2024-01-15T08:50:33.982Z,3.00
2024-01-15T08:53:02.392Z,3.10
2024-01-15T08:55:31.352Z,3.30
2024-01-15T08:58:00.005Z,3.50
2024-01-15T09:00:28.287Z,2.90
2024-01-15T09:02:57.952Z,3.00
2024-01-15T09:05:26.421Z,3.00
2024-01-15T09:07:55.711Z,3.60
2024-01-15T09:10:24.287Z,3.20
2024-01-15T09:12:52.947Z,3.10
2024-01-15T09:15:21.241Z,3.20
2024-01-15T09:17:49.663Z,3.20
2024-01-15T09:20:18.426Z,2.40
2024-01-15T09:22:46.963Z,2.90
2024-01-15T09:25:15.405Z,3.00
2024-01-15T09:27:43.850Z,3.20
2024-01-15T09:30:12.927Z,3.40
2024-01-15T09:32:41.341Z,3.20
2024-01-15T09:35:10.385Z,2.90
2024-01-15T09:37:46.816Z,3.00
2024-01-15T09:40:17.513Z,2.80
2024-01-15T09:42:47.801Z,2.90
2024-01-15T09:45:16.924Z,2.90
2024-01-15T09:47:46.695Z,2.90
2024-01-15T09:50:15.464Z,3.30
2024-01-15T09:52:45.091Z,3.20
2024-01-15T09:55:14.679Z,2.70
2024-01-15T09:57:46.023Z,3.00
2024-01-15T10:00:15.851Z,3.00
2024-01-15T10:02:44.270Z,2.90
2024-01-15T10:05:12.697Z,2.40
2024-01-15T10:07:41.789Z,3.40
2024-01-15T10:10:12.181Z,3.40
2024-01-15T10:12:41.038Z,3.30
2024-01-15T10:15:13.471Z,2.30
2024-01-15T10:17:42.461Z,3.20
2024-01-15T10:20:12.570Z,2.90
2024-01-15T10:22:44.594Z,2.60
2024-01-15T10:25:14.572Z,2.70
2024-01-15T10:27:43.197Z,2.80
2024-01-15T10:30:12.855Z,3.10
2024-01-15T10:32:41.237Z,3.20
2024-01-15T10:35:09.476Z,2.60
2024-01-15T10:37:37.777Z,2.70
2024-01-15T10:40:09.085Z,3.00
2024-01-15T10:42:37.334Z,3.00
2024-01-15T10:45:05.904Z,2.60
2024-01-15T10:47:34.214Z,3.20
2024-01-15T10:50:02.905Z,2.60
2024-01-15T10:52:31.749Z,3.00
2024-01-15T10:55:05.138Z,3.10
2024-01-15T10:57:39.943Z,3.20
2024-01-15T11:00:09.628Z,2.90
2024-01-15T11:02:38.762Z,3.50
2024-01-15T11:05:07.211Z,4.00
2024-01-15T11:07:35.790Z,3.70
2024-01-15T11:10:05.526Z,4.00
2024-01-15T11:12:34.505Z,3.60
2024-01-15T11:15:04.771Z,3.10
2024-01-15T11:18:03.086Z,3.70
2024-01-15T11:20:31.261Z,2.80
2024-01-15T11:22:59.588Z,4.50
2024-01-15T11:25:36.701Z,3.40
2024-01-15T11:28:05.880Z,3.10
2024-01-15T11:30:35.367Z,3.70
2024-01-15T11:33:04.588Z,3.50
2024-01-15T11:35:51.270Z,2.80
2024-01-15T11:38:29.432Z,3.10
2024-01-15T11:41:00.286Z,2.60
2024-01-15T11:43:29.596Z,2.70
2024-01-15T11:45:57.812Z,2.40
2024-01-15T11:48:42.704Z,2.60
2024-01-15T11:51:12.959Z,2.80
2024-01-15T11:53:52.758Z,2.70
2024-01-15T11:56:24.586Z,2.60
2024-01-15T11:58:53.075Z,2.30
2024-01-15T12:01:22.539Z,3.10
2024-01-15T12:03:51.684Z,2.60
2024-01-15T12:06:20.023Z,2.90
2024-01-15T12:08:48.375Z,2.90
2024-01-15T12:11:20.224Z,3.50
2024-01-15T12:13:49.034Z,2.80
2024-01-15T12:16:17.331Z,2.50
2024-01-15T12:18:45.824Z,2.20
2024-01-15T12:21:15.233Z,2.70
2024-01-15T12:23:43.605Z,2.50
2024-01-15T12:26:12.407Z,2.90
2024-01-15T12:28:40.598Z,3.40
2024-01-15T12:31:08.878Z,2.70
2024-01-15T12:33:40.263Z,2.10
2024-01-15T12:36:08.613Z,1.90
2024-01-15T12:38:36.757Z,2.50
2024-01-15T12:41:05.548Z,2.40
2024-01-15T12:43:36.299Z,2.20
2024-01-15T12:46:04.948Z,2.00
2024-01-15T12:48:33.557Z,2.60
2024-01-15T12:51:01.978Z,1.80
2024-01-15T12:53:30.241Z,2.10
2024-01-15T12:55:59.341Z,2.10
2024-01-15T12:58:28.019Z,2.00
2024-01-15T13:00:56.724Z,1.90
2024-01-15T13:03:25.388Z,2.00
2024-01-15T13:05:53.951Z,1.60
2024-01-15T13:08:23.209Z,1.70
2024-01-15T13:10:51.791Z,1.80
2024-01-15T13:13:20.538Z,1.80
2024-01-15T13:15:49.066Z,1.90
2024-01-15T13:18:17.334Z,2.20
2024-01-15T13:20:45.577Z,1.40
2024-01-15T13:23:13.862Z,1.50
2024-01-15T13:25:42.054Z,1.70
2024-01-15T13:28:10.492Z,1.50
2024-01-15T13:30:39.465Z,1.50
2024-01-15T13:33:07.997Z,1.50
2024-01-15T13:35:36.332Z,1.70
2024-01-15T13:38:04.897Z,2.90
2024-01-15T13:40:33.223Z,1.50
2024-01-15T13:43:01.511Z,1.40
2024-01-15T13:45:30.018Z,1.40
2024-01-15T13:47:58.874Z,1.20
2024-01-15T13:50:27.311Z,1.40
2024-01-15T13:52:56.040Z,1.10
2024-01-15T13:55:24.567Z,1.50
2024-01-15T13:57:53.044Z,1.00
2024-01-15T14:00:21.593Z,1.00
2024-01-15T14:02:50.185Z,1.00
2024-01-15T14:05:18.966Z,0.90
2024-01-15T14:07:47.491Z,0.80
2024-01-15T14:10:15.932Z,0.70
2024-01-15T14:12:44.426Z,0.70
2024-01-15T14:15:13.103Z,0.70
2024-01-15T14:17:41.692Z,0.70
2024-01-15T14:20:10.568Z,1.00
2024-01-15T14:22:39.311Z,0.90
2024-01-15T14:25:08.881Z,0.90
2024-01-15T14:27:37.106Z,1.00
2024-01-15T14:30:06.180Z,0.90
2024-01-15T14:32:34.509Z,0.90
2024-01-15T14:35:02.938Z,0.80
2024-01-15T14:37:31.366Z,1.30
2024-01-15T14:39:59.840Z,0.80
2024-01-15T14:42:28.200Z,1.30
2024-01-15T14:44:57.436Z,3.10
2024-01-15T14:47:26.200Z,4.00
2024-01-15T14:49:54.372Z,4.00
2024-01-15T14:52:22.934Z,3.90
2024-01-15T14:54:51.155Z,4.00
2024-01-15T14:57:19.503Z,5.30
2024-01-15T14:59:48.104Z,4.50
2024-01-15T15:02:16.661Z,5.40
2024-01-15T15:04:49.511Z,5.60
2024-01-15T15:07:19.571Z,5.40
2024-01-15T15:09:48.704Z,5.50
2024-01-15T15:12:19.415Z,4.30
2024-01-15T15:14:56.188Z,4.50
2024-01-15T15:17:31.992Z,3.90
2024-01-15T15:20:00.479Z,4.40
2024-01-15T15:22:29.163Z,3.90
2024-01-15T15:24:57.739Z,4.10
2024-01-15T15:27:26.202Z,3.80
2024-01-15T15:29:54.984Z,4.50
2024-01-15T15:32:23.228Z,4.90
2024-01-15T15:34:52.093Z,4.60
2024-01-15T15:37:20.366Z,5.10
2024-01-15T15:39:49.048Z,5.50
2024-01-15T15:42:17.484Z,4.60
2024-01-15T15:44:46.255Z,5.00
2024-01-15T15:47:14.901Z,5.70
2024-01-15T15:49:43.819Z,6.40
2024-01-15T15:52:12.622Z,6.10
2024-01-15T15:54:41.598Z,5.70
2024-01-15T15:57:10.557Z,5.60
2024-01-15T15:59:38.783Z,5.60
2024-01-15T16:02:07.447Z,5.80
2024-01-15T16:04:35.906Z,5.30
2024-01-15T16:07:05.157Z,4.80
2024-01-15T16:09:33.709Z,5.10
2024-01-15T16:12:02.068Z,4.90
2024-01-15T16:14:31.612Z,5.00
2024-01-15T16:23:13.933Z,5.10
2024-01-15T16:23:27.386Z,5.20
2024-01-15T16:23:42.877Z,5.00
2024-01-15T16:25:25.706Z,6.30
2024-01-15T16:27:54.540Z,5.80
2024-01-15T16:30:29.819Z,5.50
2024-01-15T16:33:05.700Z,6.50
2024-01-15T16:35:34.304Z,5.30
2024-01-15T16:38:02.651Z,4.90
2024-01-15T16:40:31.730Z,4.40
2024-01-15T16:43:01.876Z,4.20
2024-01-15T16:45:30.920Z,3.90
2024-01-15T16:47:59.659Z,3.10
2024-01-15T16:50:28.497Z,3.40
2024-01-15T16:52:57.358Z,3.00
2024-01-15T16:55:25.526Z,2.60
2024-01-15T16:57:54.109Z,4.40
2024-01-15T17:00:22.585Z,3.20
2024-01-15T17:02:51.064Z,3.40
2024-01-15T17:05:19.952Z,3.10
2024-01-15T17:07:49.236Z,3.50
2024-01-15T17:10:17.557Z,3.70
2024-01-15T17:12:46.407Z,3.00
2024-01-15T17:15:17.487Z,3.10
2024-01-15T17:17:45.987Z,2.80
2024-01-15T17:20:14.569Z,3.60
2024-01-15T17:22:43.081Z,2.80
2024-01-15T17:25:11.430Z,3.10
2024-01-15T17:27:40.146Z,3.30
2024-01-15T17:30:08.984Z,3.20
2024-01-15T17:32:37.505Z,2.90
2024-01-15T17:35:06.487Z,3.60
2024-01-15T17:37:35.895Z,3.70
2024-01-15T17:40:06.403Z,3.60
2024-01-15T17:42:35.063Z,2.60
2024-01-15T17:45:05.276Z,2.40
2024-01-15T17:47:34.064Z,1.80
2024-01-15T17:50:02.490Z,1.50
2024-01-15T17:52:31.273Z,1.50
2024-01-15T17:54:59.524Z,1.40
2024-01-15T17:57:28.935Z,1.70
2024-01-15T17:59:58.073Z,1.10
2024-01-15T18:02:26.372Z,1.30
2024-01-15T18:04:54.648Z,1.50
2024-01-15T18:07:23.099Z,0.90
2024-01-15T18:09:51.373Z,0.80
2024-01-15T18:12:19.589Z,0.50
2024-01-15T18:14:48.723Z,0.50
2024-01-15T18:17:17.019Z,0.70
2024-01-15T18:19:45.342Z,1.30
2024-01-15T18:22:14.031Z,0.70
2024-01-15T18:24:42.427Z,0.50
2024-01-15T18:27:10.995Z,0.40
2024-01-15T18:29:39.691Z,0.50
2024-01-15T18:32:08.089Z,0.50
2024-01-15T18:34:40.388Z,0.50
2024-01-15T18:37:08.725Z,0.50
2024-01-15T18:39:36.928Z,0.60
2024-01-15T18:42:05.847Z,0.90
2024-01-15T18:44:34.241Z,0.40
2024-01-15T18:47:03.157Z,0.50
2024-01-15T18:49:31.928Z,0.90
2024-01-15T18:52:00.196Z,0.50
2024-01-15T18:54:28.527Z,0.40
2024-01-15T18:56:58.966Z,0.30
2024-01-15T18:59:27.721Z,0.30
2024-01-15T19:01:56.143Z,0.40
2024-01-15T19:04:24.812Z,0.30
2024-01-15T19:06:53.031Z,0.20
2024-01-15T19:09:21.229Z,0.20
2024-01-15T19:11:49.510Z,0.50
2024-01-15T19:14:18.582Z,0.50
2024-01-15T19:16:46.952Z,0.50
2024-01-15T19:19:15.827Z,0.30
2024-01-15T19:21:44.929Z,0.30
2024-01-15T19:24:14.365Z,0.20
2024-01-15T19:26:42.821Z,0.20
2024-01-15T19:29:11.422Z,0.30
2024-01-15T19:31:40.574Z,8.50
2024-01-15T19:34:10.426Z,16.20
2024-01-15T19:36:39.058Z,123.90
2024-01-15T19:39:07.385Z,240.30
2024-01-15T19:41:35.699Z,58.30
2024-01-15T19:44:04.183Z,21.80
2024-01-15T19:46:33.060Z,6.80
2024-01-15T19:49:01.749Z,3.20
2024-01-15T19:51:30.132Z,2.50
2024-01-15T19:53:58.939Z,2.10
2024-01-15T19:56:27.356Z,0.70
2024-01-15T19:58:55.690Z,0.50
2024-01-15T20:01:25.154Z,0.70
2024-01-15T20:03:53.648Z,1.20
2024-01-15T20:06:23.151Z,1.10
2024-01-15T20:08:51.624Z,0.60
2024-01-15T20:11:20.458Z,1.50
2024-01-15T20:13:49.793Z,1.10
2024-01-15T20:16:18.816Z,1.00
2024-01-15T20:18:47.330Z,0.90
2024-01-15T20:21:15.856Z,0.90
2024-01-15T20:23:54.376Z,0.50
2024-01-15T20:26:27.742Z,0.40
2024-01-15T20:28:56.534Z,0.60
2024-01-15T20:31:26.083Z,0.50
2024-01-15T20:33:55.798Z,0.50
2024-01-15T20:36:24.257Z,0.60
2024-01-15T20:38:52.606Z,0.30
2024-01-15T20:41:20.937Z,0.40
2024-01-15T20:43:49.219Z,0.30
2024-01-15T20:46:17.554Z,0.40
2024-01-15T20:48:47.462Z,0.50
2024-01-15T20:51:16.418Z,0.90
2024-01-15T20:53:44.935Z,1.00
2024-01-15T20:56:13.954Z,0.60
2024-01-15T20:58:42.286Z,1.30
2024-01-15T21:01:11.709Z,0.60
2024-01-15T21:03:40.399Z,0.50
2024-01-15T21:06:09.049Z,0.40
2024-01-15T21:08:37.478Z,0.40
2024-01-15T21:11:05.920Z,0.40
2024-01-15T21:13:34.843Z,0.40
2024-01-15T21:16:03.198Z,0.40
2024-01-15T21:18:32.597Z,0.50
2024-01-15T21:21:01.053Z,0.60
2024-01-15T21:23:29.782Z,0.40
2024-01-15T21:25:58.778Z,0.50
2024-01-15T21:28:27.671Z,0.40
2024-01-15T21:30:55.974Z,0.70
2024-01-15T21:33:25.052Z,0.50
2024-01-15T21:35:53.873Z,0.40
2024-01-15T21:38:22.191Z,0.30
2024-01-15T21:40:50.487Z,0.40
2024-01-15T21:43:19.317Z,0.40
2024-01-15T21:45:47.604Z,0.40
2024-01-15T21:48:17.232Z,0.50
2024-01-15T21:50:45.626Z,0.30
2024-01-15T21:53:13.927Z,0.40
2024-01-15T21:55:42.640Z,0.50
2024-01-15T21:58:10.954Z,0.40
2024-01-15T22:00:39.301Z,0.40
2024-01-15T22:03:07.633Z,0.40
2024-01-15T22:05:36.265Z,0.60
2024-01-15T22:08:04.949Z,0.60
2024-01-15T22:10:33.229Z,0.50
2024-01-15T22:13:01.445Z,0.40
2024-01-15T22:15:29.730Z,0.60
2024-01-15T22:17:58.564Z,0.40
2024-01-15T22:20:27.387Z,0.40
2024-01-15T22:22:55.679Z,0.40
2024-01-15T22:25:24.089Z,0.40
2024-01-15T22:27:52.340Z,0.40
2024-01-15T22:30:20.512Z,0.40
2024-01-15T22:32:49.308Z,0.60
2024-01-15T22:35:17.833Z,0.60
2024-01-15T22:37:46.195Z,0.50
2024-01-15T22:40:14.547Z,0.80
2024-01-15T22:42:45.034Z,1.00
2024-01-15T22:45:16.624Z,0.50
2024-01-15T22:47:46.130Z,0.80
2024-01-15T22:50:19.592Z,0.60
2024-01-15T22:52:47.990Z,0.60
2024-01-15T22:55:16.438Z,0.70
2024-01-15T22:57:44.754Z,0.50
2024-01-15T23:00:14.371Z,0.70
2024-01-15T23:02:42.868Z,0.50
2024-01-15T23:05:11.358Z,0.40
2024-01-15T23:07:39.753Z,0.50
2024-01-15T23:10:09.312Z,0.50
2024-01-15T23:12:38.177Z,0.50
2024-01-15T23:15:07.000Z,0.50
2024-01-15T23:17:35.595Z,0.50
2024-01-15T23:20:05.772Z,0.40
2024-01-15T23:22:34.193Z,0.50
2024-01-15T23:25:02.376Z,0.50
2024-01-15T23:27:30.762Z,0.40
2024-01-15T23:29:59.577Z,0.40
2024-01-15T23:32:27.995Z,0.40
2024-01-15T23:34:57.208Z,0.70
2024-01-15T23:37:26.400Z,0.40
2024-01-15T23:39:55.071Z,0.50
2024-01-15T23:42:23.400Z,0.40
2024-01-15T23:44:51.923Z,0.60
2024-01-15T23:47:20.418Z,0.50
2024-01-15T23:49:48.893Z,0.60
2024-01-15T23:52:18.564Z,0.50
2024-01-15T23:54:46.703Z,0.50
2024-01-15T23:57:15.139Z,0.50
2024-01-15T23:59:43.667Z,0.50
